Terminal Aerodrome Forecast
Issued by NWS La Crosse, WI

Home | Current Version | Previous Version | Text Only | Print | Product List | Glossary On
Versions: 1 2 3 4 5 6 7 8 9 10 11 12 13 14 15 16 17 18 19 20 21 22 23 24 25 26 27 28 29 30 31 32 33 34 35 36 37 38 39 40 41 42 43 44
000
FTUS43 KARX 261434 AAC
TAFRST
TAF AMD
KRST 261434Z 2615/2712 36010KT 4SM BR OVC005
      TEMPO 2615/2616 1/4SM FG BKN002
     FM270200 36008KT 2SM -SN BR OVC003
     FM270400 36010KT 1SM -SN BR OVC002=

USA.gov is the U.S. government's official web portal to all federal, state and local government web resources and services.